Time;durP1;ratioP1;P1;durP2;ratioP2;P2;SDS_P1;SDS_P2;PMS_P1;PMS_P2;Temp;Humidity;BMP_temperature;BMP_pressure;BME280_temperature;BME280_humidity;BME280_pressure;Samples;Min_cycle;Max_cycle;Signal;HPM_P1;HPM_P2
2024/04/09 00:00:41;;;;;;;11.40;3.33;;;16.10;99.90;;;;;;7279645;19;20610;-77
2024/04/09 00:03:08;;;;;;;16.97;3.53;;;16.00;99.90;;;;;;7281726;19;20181;-77
2024/04/09 00:05:39;;;;;;;12.80;3.87;;;16.00;99.90;;;;;;7281296;19;20272;-77
2024/04/09 00:08:10;;;;;;;14.60;3.53;;;16.00;99.90;;;;;;7281898;19;20208;-77
2024/04/09 00:10:37;;;;;;;12.60;3.17;;;16.00;99.90;;;;;;7277989;19;20189;-77
2024/04/09 00:13:06;;;;;;;11.17;3.00;;;16.00;99.90;;;;;;7280899;19;20193;-77
2024/04/09 00:15:36;;;;;;;13.13;3.00;;;15.90;99.90;;;;;;7281580;19;20196;-77
2024/04/09 00:18:11;;;;;;;11.50;3.50;;;15.90;99.90;;;;;;7280517;19;20266;-77
2024/04/09 00:20:48;;;;;;;13.47;3.20;;;15.80;99.90;;;;;;7278342;19;20193;-76
2024/04/09 00:23:16;;;;;;;11.63;3.03;;;15.90;99.90;;;;;;7284059;19;20673;-77
2024/04/09 00:25:44;;;;;;;7.77;2.80;;;16.00;99.90;;;;;;7281458;19;20649;-77
2024/04/09 00:28:11;;;;;;;11.47;3.20;;;16.00;99.90;;;;;;7279568;19;20207;-77
2024/04/09 00:30:39;;;;;;;13.40;4.10;;;16.00;99.90;;;;;;7279707;19;20794;-77
2024/04/09 00:33:07;;;;;;;10.67;3.07;;;15.90;99.90;;;;;;7281126;19;24858;-77
2024/04/09 00:35:33;;;;;;;11.93;3.03;;;15.90;99.90;;;;;;7281674;19;20215;-77
2024/04/09 00:38:03;;;;;;;11.97;3.00;;;15.90;99.90;;;;;;7276969;19;20199;-78
2024/04/09 00:40:32;;;;;;;9.40;2.90;;;15.90;99.90;;;;;;7278680;19;20199;-76
2024/04/09 00:43:03;;;;;;;9.07;2.80;;;15.90;99.90;;;;;;7281645;19;20753;-77
2024/04/09 00:45:30;;;;;;;12.50;2.77;;;15.90;99.90;;;;;;7281136;19;20209;-77
2024/04/09 00:47:59;;;;;;;12.40;2.80;;;15.80;99.90;;;;;;7279120;19;20192;-77
2024/04/09 00:50:27;;;;;;;7.23;2.90;;;15.80;99.90;;;;;;7281726;19;20193;-77
2024/04/09 00:52:55;;;;;;;11.73;2.97;;;15.70;99.90;;;;;;7280639;19;21133;-77
2024/04/09 00:55:25;;;;;;;12.30;3.50;;;15.80;99.90;;;;;;7279740;19;20179;-77
2024/04/09 00:57:52;;;;;;;13.63;3.47;;;15.90;99.90;;;;;;7277390;19;21024;-77
2024/04/09 01:00:19;;;;;;;12.60;4.03;;;15.90;99.90;;;;;;7281272;19;20651;-77
2024/04/09 01:02:48;;;;;;;8.80;3.50;;;16.00;99.90;;;;;;7302735;19;20230;-76
2024/04/09 01:05:15;;;;;;;12.37;3.43;;;16.00;99.90;;;;;;7279941;19;20203;-76
2024/04/09 01:07:42;;;;;;;12.93;3.40;;;15.90;99.90;;;;;;7279317;19;20195;-76
2024/04/09 01:10:08;;;;;;;8.70;3.37;;;16.00;99.90;;;;;;7280379;19;20193;-76
2024/04/09 01:12:34;;;;;;;10.33;3.80;;;15.80;99.90;;;;;;7280790;19;20201;-76
2024/04/09 01:15:00;;;;;;;11.90;3.30;;;15.80;99.90;;;;;;7277695;19;20204;-76
2024/04/09 01:17:28;;;;;;;11.63;3.60;;;15.70;99.90;;;;;;7278378;19;20185;-76
2024/04/09 01:19:54;;;;;;;11.00;2.73;;;15.70;99.90;;;;;;7280641;19;20188;-76
2024/04/09 01:22:20;;;;;;;8.27;2.80;;;15.60;99.90;;;;;;7280295;19;20196;-76
2024/04/09 01:24:47;;;;;;;12.53;2.87;;;15.60;99.90;;;;;;7295706;19;20371;-76
2024/04/09 01:27:14;;;;;;;8.10;2.40;;;15.50;99.90;;;;;;7300793;19;20256;-76
2024/04/09 01:29:41;;;;;;;10.20;2.53;;;15.50;99.90;;;;;;7278624;19;20192;-76
2024/04/09 01:32:07;;;;;;;9.73;2.70;;;15.50;99.90;;;;;;7278734;19;20252;-76
2024/04/09 01:34:35;;;;;;;8.60;2.70;;;15.50;99.90;;;;;;7277291;19;20188;-76
2024/04/09 01:37:02;;;;;;;7.10;2.70;;;15.50;99.90;;;;;;7277209;19;20669;-77
2024/04/09 01:39:27;;;;;;;9.30;2.80;;;15.50;99.90;;;;;;7279986;19;20219;-77
2024/04/09 01:41:55;;;;;;;9.33;3.10;;;15.50;99.90;;;;;;7278733;19;20198;-76
2024/04/09 01:44:21;;;;;;;11.57;3.00;;;15.40;99.90;;;;;;7276238;19;20215;-76
2024/04/09 01:46:48;;;;;;;11.93;3.40;;;15.40;99.90;;;;;;7291955;19;20200;-77
2024/04/09 01:49:20;;;;;;;12.07;3.57;;;15.40;99.90;;;;;;7302774;19;20713;-77
2024/04/09 01:51:46;;;;;;;10.27;3.60;;;15.40;99.90;;;;;;7277214;19;20187;-78
2024/04/09 01:54:12;;;;;;;9.07;3.17;;;15.40;99.90;;;;;;7277696;19;20222;-77
2024/04/09 01:56:37;;;;;;;13.43;3.80;;;15.30;99.90;;;;;;7278304;19;20207;-76
2024/04/09 01:59:03;;;;;;;12.90;3.83;;;15.30;99.90;;;;;;7279065;19;20615;-78
2024/04/09 02:01:30;;;;;;;10.23;3.90;;;15.10;99.90;;;;;;7274459;19;20204;-77
2024/04/09 02:03:56;;;;;;;8.53;3.63;;;15.20;99.90;;;;;;7276356;19;20278;-77
2024/04/09 02:06:23;;;;;;;8.20;3.20;;;15.10;99.90;;;;;;7277890;19;20322;-76
2024/04/09 02:08:50;;;;;;;9.47;3.10;;;15.20;99.90;;;;;;7278005;19;20311;-76
2024/04/09 02:11:17;;;;;;;9.40;2.87;;;15.20;99.90;;;;;;7294705;19;20282;-76
2024/04/09 02:13:43;;;;;;;11.37;2.80;;;15.10;99.90;;;;;;7299306;19;20662;-76
2024/04/09 02:16:09;;;;;;;10.47;2.70;;;15.10;99.90;;;;;;7277649;19;20200;-77
2024/04/09 02:18:38;;;;;;;7.73;2.53;;;15.10;99.90;;;;;;7275484;19;20192;-77
2024/04/09 02:21:07;;;;;;;7.00;2.30;;;15.10;99.90;;;;;;7274137;19;20203;-77
2024/04/09 02:23:33;;;;;;;6.07;2.10;;;15.10;99.90;;;;;;7274868;19;20184;-77
2024/04/09 02:26:00;;;;;;;6.00;1.97;;;15.10;99.90;;;;;;7277196;19;20640;-77
2024/04/09 02:28:26;;;;;;;7.13;2.00;;;15.10;99.90;;;;;;7275741;19;20273;-77
2024/04/09 02:30:51;;;;;;;6.07;2.00;;;15.00;99.90;;;;;;7272233;19;20260;-77
2024/04/09 02:33:17;;;;;;;8.07;2.20;;;15.10;99.90;;;;;;7284801;19;20197;-77
2024/04/09 02:36:00;;;;;;;5.80;1.73;;;15.10;99.90;;;;;;7304136;19;20225;-77
2024/04/09 02:38:28;;;;;;;5.60;1.70;;;15.00;99.90;;;;;;7177894;19;2004504;-76
2024/04/09 02:40:54;;;;;;;5.90;2.03;;;15.00;99.90;;;;;;7280747;19;20187;-77
2024/04/09 02:43:21;;;;;;;6.50;1.80;;;15.00;99.90;;;;;;7282011;19;20275;-77
2024/04/09 02:45:48;;;;;;;5.23;1.80;;;14.90;99.90;;;;;;7296684;19;20182;-77
2024/04/09 02:48:15;;;;;;;4.60;1.73;;;14.70;99.90;;;;;;7300897;19;20191;-76
2024/04/09 02:50:51;;;;;;;3.87;1.47;;;14.60;99.90;;;;;;7281722;19;20634;-77
2024/04/09 02:53:16;;;;;;;5.27;1.70;;;14.70;99.90;;;;;;7278432;19;20254;-77
2024/04/09 02:55:43;;;;;;;6.53;1.97;;;14.70;99.90;;;;;;7299846;19;20749;-77
2024/04/09 02:58:09;;;;;;;5.60;1.60;;;14.70;99.90;;;;;;7280956;19;20265;-76
2024/04/09 03:00:42;;;;;;;4.33;2.00;;;14.70;99.90;;;;;;7282577;19;20206;-77
2024/04/09 03:03:10;;;;;;;4.37;1.50;;;14.50;99.90;;;;;;7284166;19;20182;-76
2024/04/09 03:05:36;;;;;;;3.50;1.20;;;14.50;99.90;;;;;;7283472;19;20308;-76
2024/04/09 03:08:02;;;;;;;4.67;1.10;;;14.30;99.90;;;;;;7279173;19;20206;-76
2024/04/09 03:10:34;;;;;;;6.23;1.30;;;14.10;99.90;;;;;;7282176;19;20191;-76
2024/04/09 03:13:00;;;;;;;7.53;1.10;;;14.10;99.90;;;;;;7282961;19;20191;-77
2024/04/09 03:15:26;;;;;;;5.97;1.20;;;14.10;99.90;;;;;;7281137;19;20186;-77
2024/04/09 03:17:52;;;;;;;5.80;1.00;;;14.00;99.90;;;;;;7280955;19;20276;-77
2024/04/09 03:20:18;;;;;;;3.77;1.10;;;13.90;99.90;;;;;;7283635;19;20189;-77
2024/04/09 03:22:44;;;;;;;5.50;1.00;;;13.80;99.90;;;;;;7305767;19;20263;-78
2024/04/09 03:25:09;;;;;;;6.90;0.90;;;13.70;99.90;;;;;;7281690;19;20220;-77
2024/04/09 03:27:36;;;;;;;6.07;0.90;;;13.50;99.90;;;;;;7283099;19;20663;-77
2024/04/09 03:30:04;;;;;;;5.57;0.80;;;13.40;99.90;;;;;;7283097;19;20577;-77
2024/04/09 03:32:30;;;;;;;10.70;1.20;;;13.40;99.90;;;;;;7283306;19;20616;-77
2024/04/09 03:34:56;;;;;;;8.67;1.00;;;13.30;99.90;;;;;;7282419;19;20191;-77
2024/04/09 03:37:22;;;;;;;8.77;1.00;;;13.10;99.90;;;;;;7281191;19;20185;-77
2024/04/09 03:39:48;;;;;;;14.33;1.20;;;13.00;99.90;;;;;;7287787;19;20197;-77
2024/04/09 03:42:14;;;;;;;8.37;1.63;;;13.00;99.90;;;;;;7305349;19;20200;-76
2024/04/09 03:44:40;;;;;;;4.90;1.00;;;12.90;99.90;;;;;;7276485;19;20198;-76
2024/04/09 03:47:09;;;;;;;8.27;1.30;;;12.90;99.90;;;;;;7281917;19;20190;-77
2024/04/09 03:49:35;;;;;;;8.20;1.43;;;12.80;99.90;;;;;;7285364;19;20188;-76
2024/04/09 03:52:01;;;;;;;8.47;1.43;;;12.90;99.90;;;;;;7283640;19;20603;-77
2024/04/09 03:54:27;;;;;;;8.50;1.23;;;12.90;99.90;;;;;;7281626;19;20185;-77
2024/04/09 03:56:53;;;;;;;6.57;1.17;;;12.90;99.90;;;;;;7282382;19;20207;-77
2024/04/09 03:59:19;;;;;;;8.63;1.23;;;12.90;99.90;;;;;;7284716;19;20203;-77
2024/04/09 04:01:45;;;;;;;9.93;1.40;;;13.00;99.90;;;;;;7304933;19;20260;-77
2024/04/09 04:04:13;;;;;;;9.17;1.10;;;13.00;99.90;;;;;;7281955;19;20197;-77
2024/04/09 04:06:39;;;;;;;9.60;1.13;;;12.90;99.90;;;;;;7283608;19;20224;-77
2024/04/09 04:09:08;;;;;;;7.57;1.20;;;12.90;99.90;;;;;;7283969;19;20191;-77
2024/04/09 04:11:35;;;;;;;8.23;1.23;;;12.80;99.90;;;;;;7281075;19;20266;-76
2024/04/09 04:14:01;;;;;;;8.00;0.90;;;12.80;99.90;;;;;;7283252;19;20199;-76
2024/04/09 04:16:27;;;;;;;6.53;0.93;;;12.80;99.90;;;;;;7283998;19;20204;-76
2024/04/09 04:18:53;;;;;;;4.53;0.77;;;12.90;99.90;;;;;;7282740;19;20721;-77
2024/04/09 04:21:20;;;;;;;7.30;1.27;;;12.80;99.90;;;;;;7281427;19;20195;-76
2024/04/09 04:23:48;;;;;;;6.43;1.10;;;12.90;99.90;;;;;;7303731;19;20554;-76
2024/04/09 04:26:16;;;;;;;6.40;1.10;;;12.80;99.90;;;;;;7284227;19;20212;-77
2024/04/09 04:28:46;;;;;;;9.53;1.50;;;12.70;99.90;;;;;;7282686;19;20188;-76
2024/04/09 04:31:17;;;;;;;6.80;0.90;;;12.70;99.90;;;;;;7278548;19;20229;-76
2024/04/09 04:33:44;;;;;;;9.40;1.03;;;12.70;99.90;;;;;;7281358;19;20195;-77
2024/04/09 04:36:11;;;;;;;9.27;1.50;;;12.70;99.90;;;;;;7282286;19;20185;-77
2024/04/09 04:38:38;;;;;;;9.60;1.03;;;12.70;99.90;;;;;;7279999;19;20208;-76
2024/04/09 04:41:04;;;;;;;6.60;1.00;;;12.60;99.90;;;;;;7278781;19;20184;-76
2024/04/09 04:43:31;;;;;;;9.43;1.30;;;12.60;99.90;;;;;;7280487;19;20216;-76
2024/04/09 04:45:57;;;;;;;11.30;1.20;;;12.60;99.90;;;;;;7283240;19;20189;-77
2024/04/09 04:48:23;;;;;;;7.37;1.20;;;12.70;99.90;;;;;;7280357;19;20213;-76
2024/04/09 04:50:52;;;;;;;10.63;1.20;;;12.60;99.90;;;;;;7277915;19;20225;-76
2024/04/09 04:53:18;;;;;;;9.97;1.33;;;12.70;99.90;;;;;;7291469;19;20192;-76
2024/04/09 04:55:43;;;;;;;5.13;1.00;;;12.70;99.90;;;;;;7302171;19;20663;-77
2024/04/09 04:58:09;;;;;;;8.90;1.00;;;12.60;99.90;;;;;;7278770;19;20204;-77
2024/04/09 05:00:36;;;;;;;7.93;1.50;;;12.50;99.90;;;;;;7279508;19;20194;-76
2024/04/09 05:03:02;;;;;;;9.63;1.30;;;12.40;99.90;;;;;;7278350;19;20185;-77
2024/04/09 05:05:30;;;;;;;7.83;1.10;;;12.30;99.90;;;;;;7279561;19;20202;-77
2024/04/09 05:07:57;;;;;;;7.57;1.13;;;12.30;99.90;;;;;;7279185;19;20190;-77
2024/04/09 05:10:23;;;;;;;11.53;1.33;;;12.30;99.90;;;;;;7276999;19;20185;-76
2024/04/09 05:12:51;;;;;;;12.17;1.67;;;12.20;99.90;;;;;;7279248;19;20189;-76
2024/04/09 05:15:17;;;;;;;10.20;1.17;;;12.10;99.90;;;;;;7300055;19;20224;-78
2024/04/09 05:17:44;;;;;;;6.73;1.17;;;12.10;99.90;;;;;;7299724;19;20749;-76
2024/04/09 05:20:11;;;;;;;10.80;1.43;;;12.00;99.90;;;;;;7276274;19;20201;-77
2024/04/09 05:22:39;;;;;;;7.47;1.27;;;12.00;99.90;;;;;;7278981;19;20538;-77
2024/04/09 05:25:06;;;;;;;10.60;1.70;;;11.90;99.90;;;;;;7277076;19;20623;-77
2024/04/09 05:27:32;;;;;;;8.57;1.00;;;11.90;99.90;;;;;;7276731;19;20192;-78
2024/04/09 05:29:59;;;;;;;10.30;1.20;;;12.00;99.90;;;;;;7277201;19;20202;-76
2024/04/09 05:32:25;;;;;;;7.77;1.17;;;12.00;99.90;;;;;;7279654;19;20192;-76
2024/04/09 05:34:51;;;;;;;9.43;1.40;;;11.90;99.90;;;;;;7275291;19;20186;-77
2024/04/09 05:37:17;;;;;;;4.77;1.03;;;11.80;99.90;;;;;;7292329;19;20215;-75
2024/04/09 05:39:45;;;;;;;7.20;1.10;;;11.80;99.90;;;;;;7290128;19;20189;-76
2024/04/09 05:42:11;;;;;;;9.87;0.97;;;12.00;99.90;;;;;;7280576;19;20205;-76
2024/04/09 05:44:36;;;;;;;8.87;1.20;;;12.00;99.90;;;;;;7278827;19;20224;-75
2024/04/09 05:47:02;;;;;;;7.43;1.23;;;12.10;99.90;;;;;;7274634;19;20934;-75
2024/04/09 05:49:28;;;;;;;5.87;1.07;;;12.20;99.90;;;;;;7278236;19;20668;-76
2024/04/09 05:51:54;;;;;;;9.07;1.50;;;12.30;99.90;;;;;;7278568;19;20198;-76
2024/04/09 05:54:19;;;;;;;6.00;0.87;;;12.70;99.90;;;;;;7276550;19;20662;-76
2024/04/09 05:56:52;;;;;;;8.90;1.60;;;12.60;99.90;;;;;;7299968;19;20200;-76
2024/04/09 05:59:18;;;;;;;13.43;1.30;;;12.40;99.90;;;;;;7264168;19;20188;-76
2024/04/09 06:01:44;;;;;;;7.87;1.43;;;12.50;99.90;;;;;;7300591;19;20211;-75
2024/04/09 06:04:10;;;;;;;6.47;0.87;;;12.30;99.90;;;;;;7273707;19;20195;-75
2024/04/09 06:06:36;;;;;;;15.20;1.40;;;12.30;99.90;;;;;;7276106;19;20183;-75
2024/04/09 06:09:03;;;;;;;9.10;1.60;;;12.20;99.90;;;;;;7280541;19;20191;-76
2024/04/09 06:11:29;;;;;;;7.77;1.17;;;12.20;99.90;;;;;;7282513;19;20186;-76
2024/04/09 06:13:55;;;;;;;7.50;1.20;;;12.20;99.90;;;;;;7282195;19;20341;-76
2024/04/09 06:16:21;;;;;;;10.77;1.27;;;12.10;99.90;;;;;;7283510;19;20248;-76
2024/04/09 06:18:47;;;;;;;6.17;1.37;;;12.00;99.90;;;;;;7307517;19;20285;-75
2024/04/09 06:21:13;;;;;;;10.57;1.70;;;12.00;99.90;;;;;;7282207;19;20243;-75
2024/04/09 06:23:39;;;;;;;8.10;1.20;;;11.80;99.90;;;;;;7279733;19;20308;-75
2024/04/09 06:26:05;;;;;;;6.63;1.10;;;11.80;99.90;;;;;;7282828;19;20289;-76
2024/04/09 06:28:31;;;;;;;7.53;1.27;;;11.90;99.90;;;;;;7283649;19;20518;-76
2024/04/09 06:30:57;;;;;;;8.20;1.17;;;11.80;99.90;;;;;;7281474;19;20213;-76
2024/04/09 06:33:25;;;;;;;9.90;1.40;;;11.80;99.90;;;;;;7281938;19;20191;-76
2024/04/09 06:35:51;;;;;;;7.90;1.10;;;11.70;99.90;;;;;;7281649;19;20186;-76
2024/04/09 06:38:17;;;;;;;8.07;1.30;;;11.70;99.90;;;;;;7300356;19;20205;-75
2024/04/09 06:40:43;;;;;;;8.60;1.40;;;11.70;99.90;;;;;;7298879;19;20189;-76
2024/04/09 06:43:10;;;;;;;8.83;1.00;;;11.60;99.90;;;;;;7276556;19;20192;-76
2024/04/09 06:45:36;;;;;;;9.17;1.30;;;11.50;99.90;;;;;;7282423;19;20640;-75
2024/04/09 06:48:02;;;;;;;8.47;1.00;;;11.60;99.90;;;;;;7283159;19;20212;-76
2024/04/09 06:50:28;;;;;;;8.47;0.90;;;11.50;99.90;;;;;;7279285;19;20200;-76
2024/04/09 06:52:54;;;;;;;7.70;1.30;;;11.60;99.90;;;;;;7280791;19;20294;-76
2024/04/09 06:55:20;;;;;;;7.23;1.07;;;11.60;99.90;;;;;;7281379;19;20246;-75
2024/04/09 06:57:46;;;;;;;7.93;1.20;;;11.60;99.90;;;;;;7303604;19;20189;-76
2024/04/09 07:00:14;;;;;;;9.13;1.30;;;11.60;99.90;;;;;;7279712;19;20189;-76
2024/04/09 07:02:40;;;;;;;6.60;1.00;;;11.60;99.90;;;;;;7279959;19;20219;-76
2024/04/09 07:05:08;;;;;;;5.03;1.20;;;11.70;99.90;;;;;;7283661;19;20193;-76
2024/04/09 07:07:35;;;;;;;9.70;1.70;;;11.80;99.90;;;;;;7282551;19;20656;-77
2024/04/09 07:10:02;;;;;;;12.50;1.37;;;11.80;99.90;;;;;;7277908;19;20260;-76
2024/04/09 07:12:28;;;;;;;8.10;1.23;;;11.90;99.90;;;;;;7279804;19;20194;-76
2024/04/09 07:14:54;;;;;;;6.73;1.20;;;11.90;99.90;;;;;;7281672;19;20223;-75
2024/04/09 07:17:20;;;;;;;8.50;1.30;;;11.90;99.90;;;;;;7279309;19;20187;-75
2024/04/09 07:19:46;;;;;;;5.67;0.93;;;11.90;99.90;;;;;;7299992;19;20191;-75
2024/04/09 07:22:12;;;;;;;6.00;1.00;;;11.90;99.90;;;;;;7281078;19;20188;-76
2024/04/09 07:24:42;;;;;;;6.27;1.27;;;12.00;99.90;;;;;;7282071;19;20539;-76
2024/04/09 07:27:08;;;;;;;7.63;1.60;;;12.20;99.90;;;;;;7279593;19;20196;-75
2024/04/09 07:29:34;;;;;;;8.80;1.23;;;12.20;99.90;;;;;;7277674;19;20215;-74
2024/04/09 07:32:01;;;;;;;7.67;1.13;;;12.40;99.90;;;;;;7281010;19;20539;-75
2024/04/09 07:34:27;;;;;;;8.10;1.00;;;12.40;99.90;;;;;;7281222;19;20198;-75
2024/04/09 07:36:52;;;;;;;8.10;1.10;;;12.30;99.90;;;;;;7277482;19;20186;-75
2024/04/09 07:39:18;;;;;;;10.77;1.50;;;12.40;99.90;;;;;;7283130;19;20179;-75
2024/04/09 07:41:44;;;;;;;8.03;1.03;;;12.70;99.90;;;;;;7304942;19;20199;-75
2024/04/09 07:44:10;;;;;;;7.27;1.10;;;12.80;99.90;;;;;;7280396;19;20202;-76
2024/04/09 07:46:36;;;;;;;10.83;1.10;;;13.00;99.90;;;;;;7274889;19;20207;-76
2024/04/09 07:49:04;;;;;;;9.53;1.13;;;13.10;99.90;;;;;;7278218;19;20247;-76
2024/04/09 07:51:30;;;;;;;9.37;0.97;;;13.50;99.90;;;;;;7280744;19;20195;-76
2024/04/09 07:53:57;;;;;;;8.43;1.30;;;13.50;99.90;;;;;;7279217;19;20193;-75
2024/04/09 07:56:24;;;;;;;7.50;1.13;;;13.70;99.90;;;;;;7278157;19;20188;-77
2024/04/09 07:58:50;;;;;;;8.07;1.40;;;14.00;99.90;;;;;;7280798;19;22443;-77
2024/04/09 08:01:16;;;;;;;5.70;0.80;;;14.30;99.90;;;;;;7303740;19;20194;-76
2024/04/09 08:03:43;;;;;;;9.97;1.30;;;14.40;99.90;;;;;;7279238;19;20333;-76
2024/04/09 08:06:10;;;;;;;9.27;1.00;;;14.30;99.90;;;;;;7275680;19;20182;-76
2024/04/09 08:08:36;;;;;;;8.10;1.00;;;14.30;99.90;;;;;;7280066;19;20194;-76
2024/04/09 08:11:10;;;;;;;8.20;1.17;;;13.90;99.90;;;;;;7282264;19;20256;-75
2024/04/09 08:13:36;;;;;;;7.83;1.00;;;13.90;99.90;;;;;;7277400;19;20266;-76
2024/04/09 08:16:02;;;;;;;4.03;0.80;;;14.30;99.90;;;;;;7277376;19;20190;-77
2024/04/09 08:18:28;;;;;;;5.00;0.90;;;14.50;99.90;;;;;;7280664;19;20185;-77
2024/04/09 08:20:54;;;;;;;7.17;1.13;;;14.30;99.90;;;;;;7280792;19;20203;-76
2024/04/09 08:23:19;;;;;;;9.47;1.10;;;14.20;99.90;;;;;;7278157;19;20208;-77
2024/04/09 08:25:45;;;;;;;8.77;1.17;;;14.10;99.90;;;;;;7299370;19;20193;-76
2024/04/09 08:28:11;;;;;;;9.43;1.10;;;13.80;99.90;;;;;;7280318;19;20198;-77
2024/04/09 08:30:37;;;;;;;6.87;0.80;;;13.60;99.90;;;;;;7279389;19;20208;-77
2024/04/09 08:33:05;;;;;;;8.77;0.90;;;13.50;99.90;;;;;;7276696;19;20212;-77
2024/04/09 08:35:31;;;;;;;7.37;0.77;;;13.30;99.90;;;;;;7277782;19;20613;-77
2024/04/09 08:37:57;;;;;;;5.93;0.93;;;13.10;99.90;;;;;;7274861;19;20197;-77
2024/04/09 08:40:24;;;;;;;6.07;1.03;;;13.20;99.90;;;;;;7280466;19;20266;-76
2024/04/09 08:42:53;;;;;;;5.83;1.10;;;12.80;99.90;;;;;;7277323;19;20196;-76
2024/04/09 08:45:19;;;;;;;5.43;0.73;;;12.80;99.90;;;;;;7278578;19;20910;-76
2024/04/09 08:47:48;;;;;;;9.17;1.17;;;12.80;99.90;;;;;;7302218;19;20275;-77
2024/04/09 08:50:14;;;;;;;10.63;1.10;;;12.80;99.90;;;;;;7279495;19;20717;-76
2024/04/09 08:52:40;;;;;;;8.00;1.40;;;13.10;99.90;;;;;;7276193;19;20295;-76
2024/04/09 08:55:10;;;;;;;5.00;0.90;;;14.70;99.90;;;;;;7274076;19;20201;-76
2024/04/09 08:57:37;;;;;;;5.27;1.00;;;16.00;99.90;;;;;;7278399;19;20525;-76
2024/04/09 09:00:06;;;;;;;8.87;1.30;;;17.00;99.90;;;;;;7275738;19;20213;-76
2024/04/09 09:02:33;;;;;;;7.43;1.10;;;16.90;99.90;;;;;;7273532;19;20785;-76
2024/04/09 09:04:58;;;;;;;5.40;0.87;;;16.10;99.90;;;;;;7277787;19;20188;-76
2024/04/09 09:07:24;;;;;;;7.57;1.00;;;15.50;99.90;;;;;;7278656;19;20238;-77
2024/04/09 09:09:58;;;;;;;7.33;0.87;;;15.20;99.90;;;;;;7274681;19;20574;-76
2024/04/09 09:12:24;;;;;;;7.47;1.10;;;16.10;99.90;;;;;;7274841;19;20205;-75
2024/04/09 09:14:53;;;;;;;7.93;0.90;;;16.40;99.90;;;;;;7277578;19;20199;-77
2024/04/09 09:17:18;;;;;;;6.10;0.93;;;16.80;99.90;;;;;;7284372;19;20312;-77
2024/04/09 09:19:44;;;;;;;6.43;1.13;;;17.90;99.90;;;;;;7296388;19;20996;-79
2024/04/09 09:22:11;;;;;;;6.43;1.47;;;18.30;99.90;;;;;;7275402;19;20558;-77
2024/04/09 09:24:38;;;;;;;6.23;1.10;;;18.70;99.90;;;;;;7277324;19;20326;-77
2024/04/09 09:27:08;;;;;;;5.87;1.00;;;18.10;99.90;;;;;;7276856;19;20193;-77
2024/04/09 09:29:34;;;;;;;6.87;1.00;;;17.60;99.90;;;;;;7274393;19;20257;-77
2024/04/09 09:32:01;;;;;;;5.90;0.80;;;16.90;99.90;;;;;;7276953;19;20655;-77
2024/04/09 09:34:40;;;;;;;4.43;1.10;;;16.30;99.90;;;;;;7276000;19;20195;-76
2024/04/09 09:37:08;;;;;;;5.10;0.90;;;16.30;99.90;;;;;;7276346;19;20215;-76
2024/04/09 09:39:39;;;;;;;7.67;0.90;;;16.50;99.90;;;;;;7275593;19;20192;-77
2024/04/09 09:42:16;;;;;;;5.87;0.80;;;16.90;99.90;;;;;;7277802;19;20198;-75
2024/04/09 09:44:44;;;;;;;4.83;0.90;;;16.50;99.90;;;;;;7285465;19;20662;-75
2024/04/09 09:47:10;;;;;;;5.23;0.90;;;16.10;99.90;;;;;;7281445;19;20206;-76
2024/04/09 09:49:37;;;;;;;4.50;0.97;;;16.50;99.90;;;;;;7280847;19;20192;-76
2024/04/09 09:52:04;;;;;;;5.27;0.83;;;16.90;99.90;;;;;;7283574;19;20294;-76
2024/04/09 09:54:30;;;;;;;6.17;1.00;;;17.70;99.90;;;;;;7284532;19;20208;-77
2024/04/09 09:57:02;;;;;;;3.77;0.73;;;17.90;99.90;;;;;;7278025;19;20284;-77
2024/04/09 09:59:39;;;;;;;6.60;0.93;;;17.50;99.90;;;;;;7281439;19;20194;-76
2024/04/09 10:02:06;;;;;;;8.67;1.20;;;17.10;99.90;;;;;;7284396;19;20191;-76
2024/04/09 10:04:32;;;;;;;5.30;1.00;;;16.40;99.90;;;;;;7282289;19;20275;-76
2024/04/09 10:06:59;;;;;;;5.67;0.87;;;16.40;99.90;;;;;;7282399;19;20821;-76
2024/04/09 10:09:44;;;;;;;6.00;0.90;;;15.90;99.90;;;;;;7284072;19;20694;-76
2024/04/09 10:12:33;;;;;;;4.67;0.80;;;15.40;99.90;;;;;;7285845;19;20194;-75
2024/04/09 10:15:03;;;;;;;8.00;0.87;;;15.20;99.90;;;;;;7179507;19;2004976;-76
2024/04/09 10:17:52;;;;;;;6.83;0.80;;;15.20;99.90;;;;;;7281545;19;20197;-76
2024/04/09 10:20:31;;;;;;;6.40;1.27;;;15.40;99.90;;;;;;7274905;19;20187;-76
2024/04/09 10:23:02;;;;;;;7.53;0.90;;;15.50;99.90;;;;;;7283684;19;20193;-75
2024/04/09 10:25:46;;;;;;;7.03;1.10;;;15.60;99.90;;;;;;7279704;19;20200;-76
2024/04/09 10:28:25;;;;;;;6.37;1.00;;;15.50;99.90;;;;;;7282924;19;20299;-76
2024/04/09 10:30:52;;;;;;;5.27;0.70;;;15.40;99.90;;;;;;7261119;19;20198;-75
2024/04/09 10:33:27;;;;;;;5.47;0.90;;;15.30;99.90;;;;;;7297997;19;20190;-76
2024/04/09 10:35:58;;;;;;;5.13;0.90;;;15.00;99.90;;;;;;7281546;19;20203;-77
2024/04/09 10:38:28;;;;;;;5.07;0.80;;;14.80;99.90;;;;;;7284848;19;20200;-77
2024/04/09 10:40:55;;;;;;;8.47;1.00;;;14.60;99.90;;;;;;7284198;19;20189;-77
2024/04/09 10:43:20;;;;;;;6.43;1.00;;;14.90;99.90;;;;;;7281475;19;20271;-77
2024/04/09 10:45:47;;;;;;;10.80;1.67;;;15.20;99.90;;;;;;7304687;19;20190;-77
2024/04/09 10:48:13;;;;;;;5.47;1.00;;;15.00;99.90;;;;;;7286253;19;20620;-77
2024/04/09 10:50:43;;;;;;;7.57;1.07;;;15.10;99.90;;;;;;7282988;19;20212;-77
2024/04/09 10:53:09;;;;;;;5.97;0.80;;;14.90;99.90;;;;;;7278485;19;20213;-77
2024/04/09 10:55:35;;;;;;;9.07;1.03;;;14.90;99.90;;;;;;7281449;19;20208;-76
2024/04/09 10:58:01;;;;;;;5.93;0.80;;;15.00;99.90;;;;;;7282392;19;20257;-76
2024/04/09 11:00:26;;;;;;;4.83;1.00;;;15.30;99.90;;;;;;7282777;19;20245;-77
2024/04/09 11:02:53;;;;;;;4.70;0.90;;;15.10;99.90;;;;;;7282827;19;20273;-77
2024/04/09 11:05:19;;;;;;;7.20;1.17;;;15.20;99.90;;;;;;7291419;19;20617;-78
2024/04/09 11:07:47;;;;;;;5.27;0.93;;;15.30;99.90;;;;;;7304677;19;20665;-77
2024/04/09 11:10:20;;;;;;;4.13;1.10;;;15.60;99.90;;;;;;7283421;19;20246;-77
2024/04/09 11:12:53;;;;;;;4.57;0.93;;;15.80;99.90;;;;;;7280618;19;20709;-76
2024/04/09 11:15:20;;;;;;;5.03;1.00;;;15.60;99.90;;;;;;7271833;19;20214;-77
2024/04/09 11:17:46;;;;;;;5.77;0.87;;;15.40;99.90;;;;;;7305837;19;20192;-78
2024/04/09 11:20:19;;;;;;;7.47;0.93;;;15.90;99.90;;;;;;7280229;19;20213;-77
2024/04/09 11:22:47;;;;;;;5.23;0.87;;;16.30;99.90;;;;;;7282805;19;20846;-78
2024/04/09 11:25:19;;;;;;;5.80;0.87;;;16.60;99.90;;;;;;7281577;19;20497;-76
2024/04/09 11:27:51;;;;;;;5.10;1.27;;;16.80;99.90;;;;;;7283787;19;20241;-77
2024/04/09 11:30:26;;;;;;;4.60;0.60;;;16.50;99.90;;;;;;7280756;19;20236;-76
2024/04/09 11:32:56;;;;;;;6.67;0.80;;;16.30;99.90;;;;;;7259109;19;20794;-76
2024/04/09 11:35:24;;;;;;;4.60;1.00;;;16.00;99.90;;;;;;7281709;19;20201;-76
2024/04/09 11:37:57;;;;;;;8.60;0.93;;;16.10;99.90;;;;;;7284500;19;20179;-76
2024/04/09 11:40:37;;;;;;;6.90;0.63;;;16.10;99.90;;;;;;7278441;19;20191;-76
2024/04/09 11:43:03;;;;;;;9.27;1.00;;;16.00;99.90;;;;;;7281334;19;20202;-76
2024/04/09 11:45:30;;;;;;;9.57;0.70;;;16.10;99.90;;;;;;7282148;19;20188;-77
2024/04/09 11:47:57;;;;;;;5.33;0.80;;;16.00;99.90;;;;;;7279520;19;20820;-76
2024/04/09 11:50:24;;;;;;;3.43;0.70;;;16.00;99.90;;;;;;7279307;19;20185;-76
2024/04/09 11:52:50;;;;;;;2.33;0.67;;;15.80;99.90;;;;;;7279861;19;20236;-77
2024/04/09 11:55:16;;;;;;;6.37;0.90;;;15.60;99.90;;;;;;7303642;19;20253;-77
2024/04/09 11:57:44;;;;;;;7.43;0.70;;;15.70;99.90;;;;;;7280393;19;20194;-77
2024/04/09 12:00:14;;;;;;;4.67;0.80;;;15.80;99.90;;;;;;7279746;19;20216;-76
2024/04/09 12:02:41;;;;;;;5.87;1.20;;;15.60;99.90;;;;;;7293785;19;20252;-86
2024/04/09 12:05:08;;;;;;;6.40;1.30;;;15.60;99.90;;;;;;7288156;19;20213;-86
2024/04/09 12:07:34;;;;;;;9.57;1.10;;;15.80;99.90;;;;;;7287193;19;20793;-86
2024/04/09 12:09:59;;;;;;;6.70;1.00;;;16.10;99.90;;;;;;7288676;19;20190;-86
2024/04/09 12:12:25;;;;;;;5.33;1.03;;;16.60;99.90;;;;;;7286705;19;20192;-87
2024/04/09 12:14:51;;;;;;;4.37;0.90;;;17.20;99.90;;;;;;7294359;19;20177;-86
2024/04/09 12:17:17;;;;;;;4.70;0.97;;;18.10;99.90;;;;;;7313929;19;20206;-87
2024/04/09 12:19:43;;;;;;;5.07;1.03;;;18.20;99.90;;;;;;7292732;19;20268;-87
2024/04/09 12:22:14;;;;;;;5.27;0.90;;;18.50;99.90;;;;;;7295498;19;20174;-87
2024/04/09 12:24:41;;;;;;;7.33;1.00;;;18.00;99.90;;;;;;7294751;19;20201;-87
2024/04/09 12:27:08;;;;;;;7.13;1.07;;;17.90;99.90;;;;;;7296947;19;20221;-88
2024/04/09 12:29:34;;;;;;;8.17;1.20;;;17.70;99.90;;;;;;7294794;19;20199;-88
2024/04/09 12:32:00;;;;;;;6.50;0.97;;;17.20;99.90;;;;;;7296033;19;20259;-88
2024/04/09 12:34:29;;;;;;;3.90;0.80;;;17.00;99.90;;;;;;7294998;19;20195;-88
2024/04/09 12:36:56;;;;;;;6.73;1.10;;;17.70;99.90;;;;;;7288031;19;20221;-88
2024/04/09 12:39:25;;;;;;;9.00;0.90;;;17.60;99.90;;;;;;7289678;19;20293;-88
2024/04/09 12:41:53;;;;;;;4.40;0.90;;;17.00;99.90;;;;;;7290290;19;20279;-87
2024/04/09 12:44:20;;;;;;;6.10;0.80;;;16.60;99.90;;;;;;7295324;19;20199;-86
2024/04/09 12:46:47;;;;;;;5.20;0.80;;;16.00;99.90;;;;;;7313741;19;20184;-87